Terminal Aerodrome Forecast
Issued by NWS Twin Cities, MN

Home | Current Version | Previous Version | Graphics & Text | Print | Product List | Glossary On
Versions: 1 2 3 4 5 6 7 8 9 10 11 12 13 14 15 16 17
000
FTUS43 KMPX 231743
TAFSTC
TAF
KSTC 231743Z 2318/2418 20003KT P6SM -SHRA SCT060 OVC120
     FM232200 18006KT P6SM BKN060 OVC100
     FM241400 10004KT 6SM -RA BR OVC040=

USA.gov is the U.S. government's official web portal to all federal, state and local government web resources and services.